sensor_id;sensor_type;location;lat;lon;timestamp;temperature;humidity
73643;DHT22;61938;48.652;9.292;2024-02-26T00:01:46;7.00;99.90
73643;DHT22;61938;48.652;9.292;2024-02-26T00:04:12;7.00;99.90
73643;DHT22;61938;48.652;9.292;2024-02-26T00:06:39;7.00;99.90
73643;DHT22;61938;48.652;9.292;2024-02-26T00:09:08;7.00;99.90
73643;DHT22;61938;48.652;9.292;2024-02-26T00:11:35;7.00;99.90
73643;DHT22;61938;48.652;9.292;2024-02-26T00:14:01;7.00;99.90
73643;DHT22;61938;48.652;9.292;2024-02-26T00:16:26;7.00;99.90
73643;DHT22;61938;48.652;9.292;2024-02-26T00:18:52;7.00;99.90
73643;DHT22;61938;48.652;9.292;2024-02-26T00:21:17;7.00;99.90
73643;DHT22;61938;48.652;9.292;2024-02-26T00:23:43;7.00;99.90
73643;DHT22;61938;48.652;9.292;2024-02-26T00:26:09;7.00;99.90
73643;DHT22;61938;48.652;9.292;2024-02-26T00:28:36;7.00;99.90
73643;DHT22;61938;48.652;9.292;2024-02-26T00:31:02;7.00;99.90
73643;DHT22;61938;48.652;9.292;2024-02-26T00:33:27;7.00;99.90
73643;DHT22;61938;48.652;9.292;2024-02-26T00:35:53;7.00;99.90
73643;DHT22;61938;48.652;9.292;2024-02-26T00:38:19;7.00;99.90
73643;DHT22;61938;48.652;9.292;2024-02-26T00:40:44;6.90;99.90
73643;DHT22;61938;48.652;9.292;2024-02-26T00:43:10;7.00;99.90
73643;DHT22;61938;48.652;9.292;2024-02-26T00:45:35;7.00;99.90
73643;DHT22;61938;48.652;9.292;2024-02-26T00:48:01;7.00;99.90
73643;DHT22;61938;48.652;9.292;2024-02-26T00:50:30;7.00;99.90
73643;DHT22;61938;48.652;9.292;2024-02-26T00:52:56;7.00;99.90
73643;DHT22;61938;48.652;9.292;2024-02-26T00:55:21;6.90;99.90
73643;DHT22;61938;48.652;9.292;2024-02-26T00:57:47;6.90;99.90
73643;DHT22;61938;48.652;9.292;2024-02-26T01:00:13;6.90;99.90
73643;DHT22;61938;48.652;9.292;2024-02-26T01:02:39;6.90;99.90
73643;DHT22;61938;48.652;9.292;2024-02-26T01:05:05;6.90;99.90
73643;DHT22;61938;48.652;9.292;2024-02-26T01:07:31;6.90;99.90
73643;DHT22;61938;48.652;9.292;2024-02-26T01:10:04;6.90;99.90
73643;DHT22;61938;48.652;9.292;2024-02-26T01:12:31;6.90;99.90
73643;DHT22;61938;48.652;9.292;2024-02-26T01:14:57;6.90;99.90
73643;DHT22;61938;48.652;9.292;2024-02-26T01:17:22;6.90;99.90
73643;DHT22;61938;48.652;9.292;2024-02-26T01:19:48;6.90;99.90
73643;DHT22;61938;48.652;9.292;2024-02-26T01:22:13;6.90;99.90
73643;DHT22;61938;48.652;9.292;2024-02-26T01:24:39;6.90;99.90
73643;DHT22;61938;48.652;9.292;2024-02-26T01:27:04;6.90;99.90
73643;DHT22;61938;48.652;9.292;2024-02-26T01:29:30;6.90;99.90
73643;DHT22;61938;48.652;9.292;2024-02-26T01:31:56;6.90;99.90
73643;DHT22;61938;48.652;9.292;2024-02-26T01:34:21;6.90;99.90
73643;DHT22;61938;48.652;9.292;2024-02-26T01:36:47;6.90;99.90
73643;DHT22;61938;48.652;9.292;2024-02-26T01:39:13;6.90;99.90
73643;DHT22;61938;48.652;9.292;2024-02-26T01:41:39;6.90;99.90
73643;DHT22;61938;48.652;9.292;2024-02-26T01:44:05;6.90;99.90
73643;DHT22;61938;48.652;9.292;2024-02-26T01:46:33;6.90;99.90
73643;DHT22;61938;48.652;9.292;2024-02-26T01:48:59;6.90;99.90
73643;DHT22;61938;48.652;9.292;2024-02-26T01:51:26;6.90;99.90
73643;DHT22;61938;48.652;9.292;2024-02-26T01:53:52;6.90;99.90
73643;DHT22;61938;48.652;9.292;2024-02-26T01:56:18;6.80;99.90
73643;DHT22;61938;48.652;9.292;2024-02-26T01:58:45;6.80;99.90
73643;DHT22;61938;48.652;9.292;2024-02-26T02:01:11;6.80;99.90
73643;DHT22;61938;48.652;9.292;2024-02-26T02:03:37;6.80;99.90
73643;DHT22;61938;48.652;9.292;2024-02-26T02:06:04;6.90;99.90
73643;DHT22;61938;48.652;9.292;2024-02-26T02:08:29;6.80;99.90
73643;DHT22;61938;48.652;9.292;2024-02-26T02:10:55;6.80;99.90
73643;DHT22;61938;48.652;9.292;2024-02-26T02:13:21;6.80;99.90
73643;DHT22;61938;48.652;9.292;2024-02-26T02:15:47;6.80;99.90
73643;DHT22;61938;48.652;9.292;2024-02-26T02:18:12;6.80;99.90
73643;DHT22;61938;48.652;9.292;2024-02-26T02:20:38;6.80;99.90
73643;DHT22;61938;48.652;9.292;2024-02-26T02:23:03;6.80;99.90
73643;DHT22;61938;48.652;9.292;2024-02-26T02:25:29;6.80;99.90
73643;DHT22;61938;48.652;9.292;2024-02-26T02:27:55;6.80;99.90
73643;DHT22;61938;48.652;9.292;2024-02-26T02:30:24;6.80;99.90
73643;DHT22;61938;48.652;9.292;2024-02-26T02:32:52;6.80;99.90
73643;DHT22;61938;48.652;9.292;2024-02-26T02:35:17;6.80;99.90
73643;DHT22;61938;48.652;9.292;2024-02-26T02:37:43;6.80;99.90
73643;DHT22;61938;48.652;9.292;2024-02-26T02:40:08;6.70;99.90
73643;DHT22;61938;48.652;9.292;2024-02-26T02:42:34;6.70;99.90
73643;DHT22;61938;48.652;9.292;2024-02-26T02:44:59;6.70;99.90
73643;DHT22;61938;48.652;9.292;2024-02-26T02:47:25;6.70;99.90
73643;DHT22;61938;48.652;9.292;2024-02-26T02:49:50;6.70;99.90
73643;DHT22;61938;48.652;9.292;2024-02-26T02:52:16;6.70;99.90
73643;DHT22;61938;48.652;9.292;2024-02-26T02:54:41;6.80;99.90
73643;DHT22;61938;48.652;9.292;2024-02-26T02:57:08;6.70;99.90
73643;DHT22;61938;48.652;9.292;2024-02-26T02:59:34;6.70;99.90
73643;DHT22;61938;48.652;9.292;2024-02-26T03:02:00;6.70;99.90
73643;DHT22;61938;48.652;9.292;2024-02-26T03:04:25;6.70;99.90
73643;DHT22;61938;48.652;9.292;2024-02-26T03:06:51;6.70;99.90
73643;DHT22;61938;48.652;9.292;2024-02-26T03:09:16;6.70;99.90
73643;DHT22;61938;48.652;9.292;2024-02-26T03:11:42;6.80;99.90
73643;DHT22;61938;48.652;9.292;2024-02-26T03:14:07;6.70;99.90
73643;DHT22;61938;48.652;9.292;2024-02-26T03:16:34;6.70;99.90
73643;DHT22;61938;48.652;9.292;2024-02-26T03:18:59;6.70;99.90
73643;DHT22;61938;48.652;9.292;2024-02-26T03:21:25;6.70;99.90
73643;DHT22;61938;48.652;9.292;2024-02-26T03:23:51;6.70;99.90
73643;DHT22;61938;48.652;9.292;2024-02-26T03:26:16;6.70;99.90
73643;DHT22;61938;48.652;9.292;2024-02-26T03:28:42;6.70;99.90
73643;DHT22;61938;48.652;9.292;2024-02-26T03:31:07;6.70;99.90
73643;DHT22;61938;48.652;9.292;2024-02-26T03:33:34;6.70;99.90
73643;DHT22;61938;48.652;9.292;2024-02-26T03:35:59;6.70;99.90
73643;DHT22;61938;48.652;9.292;2024-02-26T03:38:25;6.70;99.90
73643;DHT22;61938;48.652;9.292;2024-02-26T03:40:50;6.70;99.90
73643;DHT22;61938;48.652;9.292;2024-02-26T03:43:17;6.70;99.90
73643;DHT22;61938;48.652;9.292;2024-02-26T03:45:42;6.70;99.90
73643;DHT22;61938;48.652;9.292;2024-02-26T03:48:08;6.60;99.90
73643;DHT22;61938;48.652;9.292;2024-02-26T03:50:33;6.60;99.90
73643;DHT22;61938;48.652;9.292;2024-02-26T03:53:00;6.60;99.90
73643;DHT22;61938;48.652;9.292;2024-02-26T03:55:25;6.60;99.90
73643;DHT22;61938;48.652;9.292;2024-02-26T03:57:51;6.60;99.90
73643;DHT22;61938;48.652;9.292;2024-02-26T04:00:17;6.60;99.90
73643;DHT22;61938;48.652;9.292;2024-02-26T04:02:43;6.60;99.90
73643;DHT22;61938;48.652;9.292;2024-02-26T04:05:10;6.60;99.90
73643;DHT22;61938;48.652;9.292;2024-02-26T04:07:36;6.60;99.90
73643;DHT22;61938;48.652;9.292;2024-02-26T04:10:01;6.60;99.90
73643;DHT22;61938;48.652;9.292;2024-02-26T04:12:30;6.60;99.90
73643;DHT22;61938;48.652;9.292;2024-02-26T04:14:55;6.60;99.90
73643;DHT22;61938;48.652;9.292;2024-02-26T04:17:21;6.60;99.90
73643;DHT22;61938;48.652;9.292;2024-02-26T04:19:47;6.60;99.90
73643;DHT22;61938;48.652;9.292;2024-02-26T04:22:12;6.60;99.90
73643;DHT22;61938;48.652;9.292;2024-02-26T04:24:38;6.60;99.90
73643;DHT22;61938;48.652;9.292;2024-02-26T04:27:03;6.60;99.90
73643;DHT22;61938;48.652;9.292;2024-02-26T04:29:29;6.60;99.90
73643;DHT22;61938;48.652;9.292;2024-02-26T04:31:54;6.60;99.90
73643;DHT22;61938;48.652;9.292;2024-02-26T04:34:20;6.60;99.90
73643;DHT22;61938;48.652;9.292;2024-02-26T04:36:45;6.60;99.90
73643;DHT22;61938;48.652;9.292;2024-02-26T04:39:13;6.60;99.90
73643;DHT22;61938;48.652;9.292;2024-02-26T04:41:38;6.60;99.90
73643;DHT22;61938;48.652;9.292;2024-02-26T04:44:04;6.60;99.90
73643;DHT22;61938;48.652;9.292;2024-02-26T04:46:30;6.50;99.90
73643;DHT22;61938;48.652;9.292;2024-02-26T04:48:55;6.60;99.90
73643;DHT22;61938;48.652;9.292;2024-02-26T04:51:21;6.60;99.90
73643;DHT22;61938;48.652;9.292;2024-02-26T04:53:47;6.60;99.90
73643;DHT22;61938;48.652;9.292;2024-02-26T04:56:13;6.60;99.90
73643;DHT22;61938;48.652;9.292;2024-02-26T04:58:39;6.60;99.90
73643;DHT22;61938;48.652;9.292;2024-02-26T05:01:05;6.60;99.90
73643;DHT22;61938;48.652;9.292;2024-02-26T05:03:30;6.60;99.90
73643;DHT22;61938;48.652;9.292;2024-02-26T05:05:56;6.60;99.90
73643;DHT22;61938;48.652;9.292;2024-02-26T05:08:23;6.60;99.90
73643;DHT22;61938;48.652;9.292;2024-02-26T05:10:48;6.70;99.90
73643;DHT22;61938;48.652;9.292;2024-02-26T05:13:14;6.70;99.90
73643;DHT22;61938;48.652;9.292;2024-02-26T05:15:41;6.70;99.90
73643;DHT22;61938;48.652;9.292;2024-02-26T05:18:07;6.70;99.90
73643;DHT22;61938;48.652;9.292;2024-02-26T05:20:33;6.70;99.90
73643;DHT22;61938;48.652;9.292;2024-02-26T05:23:01;6.70;99.90
73643;DHT22;61938;48.652;9.292;2024-02-26T05:25:27;6.70;99.90
73643;DHT22;61938;48.652;9.292;2024-02-26T05:27:52;6.70;99.90
73643;DHT22;61938;48.652;9.292;2024-02-26T05:30:17;6.70;99.90
73643;DHT22;61938;48.652;9.292;2024-02-26T05:32:43;6.70;99.90
73643;DHT22;61938;48.652;9.292;2024-02-26T05:35:08;6.70;99.90
73643;DHT22;61938;48.652;9.292;2024-02-26T05:37:34;6.70;99.90
73643;DHT22;61938;48.652;9.292;2024-02-26T05:40:00;6.80;99.90
73643;DHT22;61938;48.652;9.292;2024-02-26T05:42:25;6.80;99.90
73643;DHT22;61938;48.652;9.292;2024-02-26T05:44:51;6.80;99.90
73643;DHT22;61938;48.652;9.292;2024-02-26T05:47:16;6.80;99.90
73643;DHT22;61938;48.652;9.292;2024-02-26T05:49:43;6.80;99.90
73643;DHT22;61938;48.652;9.292;2024-02-26T05:52:08;6.80;99.90
73643;DHT22;61938;48.652;9.292;2024-02-26T05:54:34;6.80;99.90
73643;DHT22;61938;48.652;9.292;2024-02-26T05:56:59;6.80;99.90
73643;DHT22;61938;48.652;9.292;2024-02-26T05:59:25;6.80;99.90
73643;DHT22;61938;48.652;9.292;2024-02-26T06:01:50;6.80;99.90
73643;DHT22;61938;48.652;9.292;2024-02-26T06:04:16;6.70;99.90
73643;DHT22;61938;48.652;9.292;2024-02-26T06:06:45;6.70;99.90
73643;DHT22;61938;48.652;9.292;2024-02-26T06:09:13;6.80;99.90
73643;DHT22;61938;48.652;9.292;2024-02-26T06:11:39;6.70;99.90
73643;DHT22;61938;48.652;9.292;2024-02-26T06:14:04;6.80;99.90
73643;DHT22;61938;48.652;9.292;2024-02-26T06:16:30;6.80;99.90
73643;DHT22;61938;48.652;9.292;2024-02-26T06:18:56;6.70;99.90
73643;DHT22;61938;48.652;9.292;2024-02-26T06:21:22;6.70;99.90
73643;DHT22;61938;48.652;9.292;2024-02-26T06:23:47;6.70;99.90
73643;DHT22;61938;48.652;9.292;2024-02-26T06:26:13;6.70;99.90
73643;DHT22;61938;48.652;9.292;2024-02-26T06:28:38;6.70;99.90
73643;DHT22;61938;48.652;9.292;2024-02-26T06:31:06;6.70;99.90
73643;DHT22;61938;48.652;9.292;2024-02-26T06:33:32;6.70;99.90
73643;DHT22;61938;48.652;9.292;2024-02-26T06:35:57;6.60;99.90
73643;DHT22;61938;48.652;9.292;2024-02-26T06:38:23;6.70;99.90
73643;DHT22;61938;48.652;9.292;2024-02-26T06:40:48;6.60;99.90
73643;DHT22;61938;48.652;9.292;2024-02-26T06:43:14;6.60;99.90
73643;DHT22;61938;48.652;9.292;2024-02-26T06:45:39;6.60;99.90
73643;DHT22;61938;48.652;9.292;2024-02-26T06:48:05;6.60;99.90
73643;DHT22;61938;48.652;9.292;2024-02-26T06:50:31;6.60;99.90
73643;DHT22;61938;48.652;9.292;2024-02-26T06:52:56;6.60;99.90
73643;DHT22;61938;48.652;9.292;2024-02-26T06:55:22;6.50;99.90
73643;DHT22;61938;48.652;9.292;2024-02-26T06:57:47;6.50;99.90
73643;DHT22;61938;48.652;9.292;2024-02-26T07:00:13;6.50;99.90
73643;DHT22;61938;48.652;9.292;2024-02-26T07:02:42;6.50;99.90
73643;DHT22;61938;48.652;9.292;2024-02-26T07:05:08;6.50;99.90
73643;DHT22;61938;48.652;9.292;2024-02-26T07:07:33;6.50;99.90
73643;DHT22;61938;48.652;9.292;2024-02-26T07:09:59;6.50;99.90
73643;DHT22;61938;48.652;9.292;2024-02-26T07:12:25;6.50;99.90
73643;DHT22;61938;48.652;9.292;2024-02-26T07:14:50;6.60;99.90
73643;DHT22;61938;48.652;9.292;2024-02-26T07:17:17;6.50;99.90
73643;DHT22;61938;48.652;9.292;2024-02-26T07:19:43;6.50;99.90
73643;DHT22;61938;48.652;9.292;2024-02-26T07:22:08;6.50;99.90
73643;DHT22;61938;48.652;9.292;2024-02-26T07:24:34;6.50;99.90
73643;DHT22;61938;48.652;9.292;2024-02-26T07:26:59;6.50;99.90
73643;DHT22;61938;48.652;9.292;2024-02-26T07:29:25;6.50;99.90
73643;DHT22;61938;48.652;9.292;2024-02-26T07:31:50;6.50;99.90
73643;DHT22;61938;48.652;9.292;2024-02-26T07:34:16;6.50;99.90
73643;DHT22;61938;48.652;9.292;2024-02-26T07:36:42;6.50;99.90
73643;DHT22;61938;48.652;9.292;2024-02-26T07:39:07;6.50;99.90
73643;DHT22;61938;48.652;9.292;2024-02-26T07:41:33;6.60;99.90
73643;DHT22;61938;48.652;9.292;2024-02-26T07:43:58;6.60;99.90
73643;DHT22;61938;48.652;9.292;2024-02-26T07:46:24;6.60;99.90
73643;DHT22;61938;48.652;9.292;2024-02-26T07:48:50;6.60;99.90
73643;DHT22;61938;48.652;9.292;2024-02-26T07:51:15;6.50;99.90
73643;DHT22;61938;48.652;9.292;2024-02-26T07:53:41;6.60;99.90
73643;DHT22;61938;48.652;9.292;2024-02-26T07:56:06;6.60;99.90
73643;DHT22;61938;48.652;9.292;2024-02-26T07:58:33;6.60;99.90
73643;DHT22;61938;48.652;9.292;2024-02-26T08:00:58;6.60;99.90
73643;DHT22;61938;48.652;9.292;2024-02-26T08:03:24;6.60;99.90
73643;DHT22;61938;48.652;9.292;2024-02-26T08:05:51;6.60;99.90
73643;DHT22;61938;48.652;9.292;2024-02-26T08:08:17;6.60;99.90
73643;DHT22;61938;48.652;9.292;2024-02-26T08:10:42;6.60;99.90
73643;DHT22;61938;48.652;9.292;2024-02-26T08:13:08;6.60;99.90
73643;DHT22;61938;48.652;9.292;2024-02-26T08:15:35;6.60;99.90
73643;DHT22;61938;48.652;9.292;2024-02-26T08:18:01;6.60;99.90
73643;DHT22;61938;48.652;9.292;2024-02-26T08:20:30;6.60;99.90
73643;DHT22;61938;48.652;9.292;2024-02-26T08:22:57;6.60;99.90
73643;DHT22;61938;48.652;9.292;2024-02-26T08:25:23;6.60;99.90
73643;DHT22;61938;48.652;9.292;2024-02-26T08:27:48;6.60;99.90
73643;DHT22;61938;48.652;9.292;2024-02-26T08:30:15;6.60;99.90
73643;DHT22;61938;48.652;9.292;2024-02-26T08:32:43;6.60;99.90
73643;DHT22;61938;48.652;9.292;2024-02-26T08:35:08;6.60;99.90
73643;DHT22;61938;48.652;9.292;2024-02-26T08:37:34;6.70;99.90
73643;DHT22;61938;48.652;9.292;2024-02-26T08:39:59;6.70;99.90
73643;DHT22;61938;48.652;9.292;2024-02-26T08:42:25;6.70;99.90
73643;DHT22;61938;48.652;9.292;2024-02-26T08:44:50;6.70;99.90
73643;DHT22;61938;48.652;9.292;2024-02-26T08:47:16;6.70;99.90
73643;DHT22;61938;48.652;9.292;2024-02-26T08:49:45;6.70;99.90
73643;DHT22;61938;48.652;9.292;2024-02-26T08:52:11;6.70;99.90
73643;DHT22;61938;48.652;9.292;2024-02-26T08:54:36;6.70;99.90
73643;DHT22;61938;48.652;9.292;2024-02-26T08:57:02;6.80;99.90
73643;DHT22;61938;48.652;9.292;2024-02-26T08:59:28;6.80;99.90
73643;DHT22;61938;48.652;9.292;2024-02-26T09:01:53;6.80;99.90
73643;DHT22;61938;48.652;9.292;2024-02-26T09:04:19;6.80;99.90
73643;DHT22;61938;48.652;9.292;2024-02-26T09:06:45;6.80;99.90
73643;DHT22;61938;48.652;9.292;2024-02-26T09:09:10;6.80;99.90
73643;DHT22;61938;48.652;9.292;2024-02-26T09:11:36;6.80;99.90
73643;DHT22;61938;48.652;9.292;2024-02-26T09:14:02;6.80;99.90
73643;DHT22;61938;48.652;9.292;2024-02-26T09:16:29;6.90;99.90
73643;DHT22;61938;48.652;9.292;2024-02-26T09:18:54;6.90;99.90
73643;DHT22;61938;48.652;9.292;2024-02-26T09:21:20;6.90;99.90
73643;DHT22;61938;48.652;9.292;2024-02-26T09:23:49;6.90;99.90
73643;DHT22;61938;48.652;9.292;2024-02-26T09:26:15;6.90;99.90
73643;DHT22;61938;48.652;9.292;2024-02-26T09:28:40;7.00;99.90
73643;DHT22;61938;48.652;9.292;2024-02-26T09:31:06;7.00;99.90
73643;DHT22;61938;48.652;9.292;2024-02-26T09:33:32;7.00;99.90
73643;DHT22;61938;48.652;9.292;2024-02-26T09:35:58;7.00;99.90
73643;DHT22;61938;48.652;9.292;2024-02-26T09:38:23;7.00;99.90
73643;DHT22;61938;48.652;9.292;2024-02-26T09:40:49;7.10;99.90
73643;DHT22;61938;48.652;9.292;2024-02-26T09:43:17;7.10;99.90
73643;DHT22;61938;48.652;9.292;2024-02-26T09:45:46;7.10;99.90
73643;DHT22;61938;48.652;9.292;2024-02-26T09:48:12;7.10;99.90
73643;DHT22;61938;48.652;9.292;2024-02-26T09:50:40;7.10;99.90
73643;DHT22;61938;48.652;9.292;2024-02-26T09:53:08;7.10;99.90
73643;DHT22;61938;48.652;9.292;2024-02-26T09:55:35;7.20;99.90
73643;DHT22;61938;48.652;9.292;2024-02-26T09:58:01;7.20;99.90
73643;DHT22;61938;48.652;9.292;2024-02-26T10:00:30;7.20;99.90
73643;DHT22;61938;48.652;9.292;2024-02-26T10:03:06;7.20;99.90
73643;DHT22;61938;48.652;9.292;2024-02-26T10:05:32;7.30;99.90
73643;DHT22;61938;48.652;9.292;2024-02-26T10:07:59;7.30;99.90
73643;DHT22;61938;48.652;9.292;2024-02-26T10:10:30;7.40;99.90
73643;DHT22;61938;48.652;9.292;2024-02-26T10:12:57;7.40;99.90
73643;DHT22;61938;48.652;9.292;2024-02-26T10:15:23;7.50;99.90
73643;DHT22;61938;48.652;9.292;2024-02-26T10:17:49;7.50;99.90
73643;DHT22;61938;48.652;9.292;2024-02-26T10:20:17;7.60;99.90
73643;DHT22;61938;48.652;9.292;2024-02-26T10:22:47;7.60;99.90
73643;DHT22;61938;48.652;9.292;2024-02-26T10:25:14;7.70;99.90
73643;DHT22;61938;48.652;9.292;2024-02-26T10:27:43;7.80;99.90
73643;DHT22;61938;48.652;9.292;2024-02-26T10:30:19;7.80;99.90
73643;DHT22;61938;48.652;9.292;2024-02-26T10:32:45;7.80;99.90
73643;DHT22;61938;48.652;9.292;2024-02-26T10:35:15;7.80;99.90
73643;DHT22;61938;48.652;9.292;2024-02-26T10:37:41;7.90;99.90
73643;DHT22;61938;48.652;9.292;2024-02-26T10:40:13;7.90;99.90
73643;DHT22;61938;48.652;9.292;2024-02-26T10:42:39;7.90;99.90
73643;DHT22;61938;48.652;9.292;2024-02-26T10:45:06;7.90;99.90
73643;DHT22;61938;48.652;9.292;2024-02-26T10:47:32;8.00;99.90
73643;DHT22;61938;48.652;9.292;2024-02-26T10:49:59;8.10;99.90
73643;DHT22;61938;48.652;9.292;2024-02-26T10:52:27;8.20;99.90
73643;DHT22;61938;48.652;9.292;2024-02-26T10:54:54;8.30;99.90
73643;DHT22;61938;48.652;9.292;2024-02-26T10:57:21;8.30;99.90
73643;DHT22;61938;48.652;9.292;2024-02-26T10:59:48;8.40;99.90
73643;DHT22;61938;48.652;9.292;2024-02-26T11:02:14;8.50;99.90
73643;DHT22;61938;48.652;9.292;2024-02-26T11:04:41;8.50;99.90
73643;DHT22;61938;48.652;9.292;2024-02-26T11:07:08;8.60;99.90
73643;DHT22;61938;48.652;9.292;2024-02-26T11:09:35;8.60;99.90
73643;DHT22;61938;48.652;9.292;2024-02-26T11:12:08;8.60;99.90
73643;DHT22;61938;48.652;9.292;2024-02-26T11:14:39;8.70;99.90
73643;DHT22;61938;48.652;9.292;2024-02-26T11:17:07;8.70;99.90
73643;DHT22;61938;48.652;9.292;2024-02-26T11:19:35;8.80;99.90
73643;DHT22;61938;48.652;9.292;2024-02-26T11:22:01;8.80;99.90
73643;DHT22;61938;48.652;9.292;2024-02-26T11:24:27;8.80;99.90
73643;DHT22;61938;48.652;9.292;2024-02-26T11:26:58;8.80;99.90
73643;DHT22;61938;48.652;9.292;2024-02-26T11:29:37;8.90;99.90
73643;DHT22;61938;48.652;9.292;2024-02-26T11:32:03;8.90;99.90
73643;DHT22;61938;48.652;9.292;2024-02-26T11:34:30;8.90;99.90
73643;DHT22;61938;48.652;9.292;2024-02-26T11:36:56;8.90;99.90
73643;DHT22;61938;48.652;9.292;2024-02-26T11:39:22;8.90;99.90
73643;DHT22;61938;48.652;9.292;2024-02-26T11:41:50;8.90;99.90
73643;DHT22;61938;48.652;9.292;2024-02-26T11:44:28;8.90;99.90
73643;DHT22;61938;48.652;9.292;2024-02-26T11:46:56;8.90;99.90
73643;DHT22;61938;48.652;9.292;2024-02-26T11:51:55;8.90;99.90
73643;DHT22;61938;48.652;9.292;2024-02-26T11:54:51;9.00;99.90
73643;DHT22;61938;48.652;9.292;2024-02-26T11:57:30;9.00;99.90
73643;DHT22;61938;48.652;9.292;2024-02-26T12:02:40;9.10;99.90
73643;DHT22;61938;48.652;9.292;2024-02-26T12:05:17;9.10;99.90
73643;DHT22;61938;48.652;9.292;2024-02-26T12:07:47;9.10;99.90
73643;DHT22;61938;48.652;9.292;2024-02-26T12:10:26;9.10;99.90
73643;DHT22;61938;48.652;9.292;2024-02-26T12:13:15;9.20;99.90
73643;DHT22;61938;48.652;9.292;2024-02-26T12:15:57;9.20;99.90
73643;DHT22;61938;48.652;9.292;2024-02-26T12:18:23;9.20;99.90
73643;DHT22;61938;48.652;9.292;2024-02-26T12:21:02;9.30;99.90
73643;DHT22;61938;48.652;9.292;2024-02-26T12:23:29;9.30;99.90
73643;DHT22;61938;48.652;9.292;2024-02-26T12:25:59;9.40;99.90
73643;DHT22;61938;48.652;9.292;2024-02-26T12:28:33;9.40;99.90
73643;DHT22;61938;48.652;9.292;2024-02-26T12:30:59;9.40;99.90
73643;DHT22;61938;48.652;9.292;2024-02-26T12:33:25;9.50;99.90
73643;DHT22;61938;48.652;9.292;2024-02-26T12:35:52;9.40;99.90
73643;DHT22;61938;48.652;9.292;2024-02-26T12:38:17;9.50;99.90
73643;DHT22;61938;48.652;9.292;2024-02-26T12:40:44;9.50;99.90
73643;DHT22;61938;48.652;9.292;2024-02-26T12:43:09;9.60;99.90
73643;DHT22;61938;48.652;9.292;2024-02-26T12:45:41;9.70;99.90
73643;DHT22;61938;48.652;9.292;2024-02-26T12:48:07;9.80;99.90
73643;DHT22;61938;48.652;9.292;2024-02-26T12:50:32;9.80;99.90
73643;DHT22;61938;48.652;9.292;2024-02-26T12:52:59;9.90;99.90
73643;DHT22;61938;48.652;9.292;2024-02-26T12:55:24;10.10;99.90
73643;DHT22;61938;48.652;9.292;2024-02-26T12:57:51;10.10;99.90
73643;DHT22;61938;48.652;9.292;2024-02-26T13:00:21;10.10;99.90
73643;DHT22;61938;48.652;9.292;2024-02-26T13:02:49;10.10;99.90
73643;DHT22;61938;48.652;9.292;2024-02-26T13:05:16;10.10;99.90
73643;DHT22;61938;48.652;9.292;2024-02-26T13:07:46;10.10;99.90
73643;DHT22;61938;48.652;9.292;2024-02-26T13:10:13;10.10;99.90
73643;DHT22;61938;48.652;9.292;2024-02-26T13:12:46;10.20;99.90
73643;DHT22;61938;48.652;9.292;2024-02-26T13:15:16;10.20;99.90
73643;DHT22;61938;48.652;9.292;2024-02-26T13:17:43;10.20;99.90
73643;DHT22;61938;48.652;9.292;2024-02-26T13:20:09;10.30;99.90
73643;DHT22;61938;48.652;9.292;2024-02-26T13:22:38;10.30;99.90
73643;DHT22;61938;48.652;9.292;2024-02-26T13:25:04;10.30;99.90
73643;DHT22;61938;48.652;9.292;2024-02-26T13:27:32;10.40;99.90
73643;DHT22;61938;48.652;9.292;2024-02-26T13:30:11;10.40;99.90
73643;DHT22;61938;48.652;9.292;2024-02-26T13:32:38;10.50;99.90
73643;DHT22;61938;48.652;9.292;2024-02-26T13:35:13;10.60;99.90
73643;DHT22;61938;48.652;9.292;2024-02-26T13:37:40;10.70;99.90
73643;DHT22;61938;48.652;9.292;2024-02-26T13:40:11;10.80;99.90
73643;DHT22;61938;48.652;9.292;2024-02-26T13:42:37;10.70;99.90
73643;DHT22;61938;48.652;9.292;2024-02-26T13:45:04;10.70;99.90
73643;DHT22;61938;48.652;9.292;2024-02-26T13:47:33;10.70;99.90
73643;DHT22;61938;48.652;9.292;2024-02-26T13:49:59;10.70;99.90
73643;DHT22;61938;48.652;9.292;2024-02-26T13:52:26;10.70;99.90
73643;DHT22;61938;48.652;9.292;2024-02-26T13:54:51;10.80;99.90
73643;DHT22;61938;48.652;9.292;2024-02-26T13:57:18;10.80;99.90
73643;DHT22;61938;48.652;9.292;2024-02-26T13:59:44;10.80;99.90
73643;DHT22;61938;48.652;9.292;2024-02-26T14:02:10;10.80;99.90
73643;DHT22;61938;48.652;9.292;2024-02-26T14:04:36;10.80;99.90
73643;DHT22;61938;48.652;9.292;2024-02-26T14:07:02;10.80;99.90
73643;DHT22;61938;48.652;9.292;2024-02-26T14:09:28;11.00;99.90
73643;DHT22;61938;48.652;9.292;2024-02-26T14:11:54;11.00;99.90
73643;DHT22;61938;48.652;9.292;2024-02-26T14:14:19;11.00;99.90
73643;DHT22;61938;48.652;9.292;2024-02-26T14:16:45;11.00;99.90
73643;DHT22;61938;48.652;9.292;2024-02-26T14:19:10;11.00;99.90
73643;DHT22;61938;48.652;9.292;2024-02-26T14:21:37;11.00;99.90
73643;DHT22;61938;48.652;9.292;2024-02-26T14:24:02;11.10;99.90
73643;DHT22;61938;48.652;9.292;2024-02-26T14:26:29;11.10;99.90
73643;DHT22;61938;48.652;9.292;2024-02-26T14:28:54;11.10;99.90
73643;DHT22;61938;48.652;9.292;2024-02-26T14:31:20;11.10;99.90
73643;DHT22;61938;48.652;9.292;2024-02-26T14:33:45;11.20;99.90
73643;DHT22;61938;48.652;9.292;2024-02-26T14:36:11;11.20;99.90
73643;DHT22;61938;48.652;9.292;2024-02-26T14:38:37;11.30;99.90
73643;DHT22;61938;48.652;9.292;2024-02-26T14:41:04;11.30;99.90
73643;DHT22;61938;48.652;9.292;2024-02-26T14:43:30;11.40;99.90
73643;DHT22;61938;48.652;9.292;2024-02-26T14:45:58;11.40;99.90
73643;DHT22;61938;48.652;9.292;2024-02-26T14:48:24;11.40;99.90
73643;DHT22;61938;48.652;9.292;2024-02-26T14:50:50;11.50;99.90
73643;DHT22;61938;48.652;9.292;2024-02-26T14:53:16;11.50;99.90
73643;DHT22;61938;48.652;9.292;2024-02-26T14:55:42;11.50;99.90
73643;DHT22;61938;48.652;9.292;2024-02-26T14:58:07;11.50;99.90
73643;DHT22;61938;48.652;9.292;2024-02-26T15:00:32;11.50;99.90
73643;DHT22;61938;48.652;9.292;2024-02-26T15:03:00;11.50;99.90
73643;DHT22;61938;48.652;9.292;2024-02-26T15:05:25;11.50;99.90
73643;DHT22;61938;48.652;9.292;2024-02-26T15:07:51;11.50;99.90
73643;DHT22;61938;48.652;9.292;2024-02-26T15:10:16;11.50;99.90
73643;DHT22;61938;48.652;9.292;2024-02-26T15:12:42;11.50;99.90
73643;DHT22;61938;48.652;9.292;2024-02-26T15:15:08;11.50;99.90
73643;DHT22;61938;48.652;9.292;2024-02-26T15:17:33;11.50;99.90
73643;DHT22;61938;48.652;9.292;2024-02-26T15:20:00;11.60;99.90
73643;DHT22;61938;48.652;9.292;2024-02-26T15:22:26;11.50;99.90
73643;DHT22;61938;48.652;9.292;2024-02-26T15:24:52;11.50;99.90
73643;DHT22;61938;48.652;9.292;2024-02-26T15:27:17;11.60;99.90
73643;DHT22;61938;48.652;9.292;2024-02-26T15:29:43;11.50;99.90
73643;DHT22;61938;48.652;9.292;2024-02-26T15:32:09;11.60;99.90
73643;DHT22;61938;48.652;9.292;2024-02-26T15:34:35;11.60;99.90
73643;DHT22;61938;48.652;9.292;2024-02-26T15:37:01;11.60;99.90
73643;DHT22;61938;48.652;9.292;2024-02-26T15:39:26;11.60;99.90
73643;DHT22;61938;48.652;9.292;2024-02-26T15:41:52;11.60;99.90
73643;DHT22;61938;48.652;9.292;2024-02-26T15:44:18;11.60;99.90